Elsa — WDB7862 — position and weather

sailwx.info

Track history (hours):
 
Tides and Currents Weather Stations Pressure Air Temp Water Temp Dewpoint Dewpoint Depression Visibility Wind Speed Wind Dir Waves Ship Positions

Elsa

More information available from US FCC via Universal Licensing System and Coast Guard Vessel Documentation Center.

Last reported at 2014-Jul-31 17:22 UTC. Time now 2014-Aug-01 07:47 UTC.
Position N 33°43' W 118°14'.

Length 18 m.

Type: Tug. MMSI: 366949020.

Date/timePositionNaut miles runAvg speedWind from/ knotsBaromVisibWave heightAir tempDewpointWater temp
2014-Jul-31 17:22N 33°43' W 118°14'2 1.9
2014-Jul-31 16:33N 33°45' W 118°13'0 0.0
2014-Jul-31 15:33N 33°45' W 118°13'0 0.3
2014-Jul-31 14:31N 33°45' W 118°12'3 3.2
2014-Jul-31 13:32N 33°44' W 118°16'0 0.0
2014-Jul-31 11:32N 33°44' W 118°16'0 0.0
2014-Jul-29 16:22N 33°44' W 118°16'0 0.0
2014-Jul-28 16:17N 33°44' W 118°16'0 0.0
2014-Jul-27 04:33N 33°44' W 118°16'3 2.8
2014-Jul-27 03:33N 33°44' W 118°13'1 1.0
2014-Jul-27 02:33N 33°45' W 118°12'0 0.0
2014-Jul-27 01:32N 33°45' W 118°12'0 0.0
2014-Jul-27 00:33N 33°45' W 118°12'3 3.1
2014-Jul-26 23:33N 33°43' W 118°16'1 0.0
2014-Jul-26 03:33N 33°44' W 118°16'1 0.6
2014-Jul-26 02:33N 33°44' W 118°15'0 0.0
2014-Jul-26 01:27N 33°44' W 118°15'1 0.9
2014-Jul-26 00:33N 33°44' W 118°16'0 0.0
2014-Jul-24 03:19N 33°44' W 118°16'3 3.5
2014-Jul-24 02:33N 33°43' W 118°13'3 1.4
2014-Jul-24 00:33N 33°44' W 118°10'0 0.1
2014-Jul-23 23:33N 33°44' W 118°10'5 5.1
2014-Jul-23 22:33N 33°44' W 118°16'0 0.0
2014-Jul-23 03:19N 33°44' W 118°16'1 1.7
2014-Jul-23 02:33N 33°45' W 118°16'0 0.0
2014-Jul-23 01:32N 33°45' W 118°16'0 0.4
2014-Jul-23 00:33N 33°45' W 118°16'3 2.9
2014-Jul-22 23:33N 33°43' W 118°13'0 0.1
2014-Jul-22 22:33N 33°43' W 118°13'0 0.0
2014-Jul-22 21:34N 33°43' W 118°13'0 0.0
2014-Jul-22 20:33N 33°43' W 118°13'1 0.8
2014-Jul-22 19:31N 33°44' W 118°13'0 0.0
2014-Jul-22 16:30N 33°44' W 118°13'2 0.1
2014-Jul-21 18:24N 33°45' W 118°11'  
Track history (hours):
 
Tides and Currents Weather Stations Pressure Air Temp Water Temp Dewpoint Dewpoint Depression Visibility Wind Speed Wind Dir Waves Ship Positions

Elsa

More information available from US FCC via Universal Licensing System and Coast Guard Vessel Documentation Center.

Last reported at 2014-Jul-31 17:22 UTC. Time now 2014-Aug-01 07:47 UTC.
Position N 33°43' W 118°14'.

Length 18 m.

Type: Tug. MMSI: 366949020.

Date/timePositionNaut miles runAvg speedWind from/ knotsBaromVisibWave heightAir tempDewpointWater temp
2014-Jul-31 17:22N 33°43' W 118°14'2 1.9
2014-Jul-31 16:33N 33°45' W 118°13'0 0.0
2014-Jul-31 15:33N 33°45' W 118°13'0 0.3
2014-Jul-31 14:31N 33°45' W 118°12'3 3.2
2014-Jul-31 13:32N 33°44' W 118°16'0 0.0
2014-Jul-31 11:32N 33°44' W 118°16'0 0.0
2014-Jul-29 16:22N 33°44' W 118°16'0 0.0
2014-Jul-28 16:17N 33°44' W 118°16'0 0.0
2014-Jul-27 04:33N 33°44' W 118°16'3 2.8
2014-Jul-27 03:33N 33°44' W 118°13'1 1.0
2014-Jul-27 02:33N 33°45' W 118°12'0 0.0
2014-Jul-27 01:32N 33°45' W 118°12'0 0.0
2014-Jul-27 00:33N 33°45' W 118°12'3 3.1
2014-Jul-26 23:33N 33°43' W 118°16'1 0.0
2014-Jul-26 03:33N 33°44' W 118°16'1 0.6
2014-Jul-26 02:33N 33°44' W 118°15'0 0.0
2014-Jul-26 01:27N 33°44' W 118°15'1 0.9
2014-Jul-26 00:33N 33°44' W 118°16'0 0.0
2014-Jul-24 03:19N 33°44' W 118°16'3 3.5
2014-Jul-24 02:33N 33°43' W 118°13'3 1.4
2014-Jul-24 00:33N 33°44' W 118°10'0 0.1
2014-Jul-23 23:33N 33°44' W 118°10'5 5.1
2014-Jul-23 22:33N 33°44' W 118°16'0 0.0
2014-Jul-23 03:19N 33°44' W 118°16'1 1.7
2014-Jul-23 02:33N 33°45' W 118°16'0 0.0
2014-Jul-23 01:32N 33°45' W 118°16'0 0.4
2014-Jul-23 00:33N 33°45' W 118°16'3 2.9
2014-Jul-22 23:33N 33°43' W 118°13'0 0.1
2014-Jul-22 22:33N 33°43' W 118°13'0 0.0
2014-Jul-22 21:34N 33°43' W 118°13'0 0.0
2014-Jul-22 20:33N 33°43' W 118°13'1 0.8
2014-Jul-22 19:31N 33°44' W 118°13'0 0.0
2014-Jul-22 16:30N 33°44' W 118°13'2 0.1
2014-Jul-21 18:24N 33°45' W 118°11'  

Dump ship's entire track history